This is the latest recevied weather packets stored in our database for station/object K4ROM-1. If no packets are shown the sender has not sent any weather packets the latest 1 day(s).
| Time | Temp. | Humidity | Pressure | Rain* | Wind** | Luminosity | Snow |
|---|---|---|---|---|---|---|---|
| 1778107203 | 25° C | 66% | 1013.1 hPa | 0 mm | 1.34 m/s, 227° | - | - |
| 1778098803 | 23.89° C | 75% | 1013.3 hPa | 0 mm | 1.79 m/s, 233° | - | - |
| 1778098203 | 24.44° C | 77% | 1013.5 hPa | 0 mm | 0.45 m/s, 202° | - | - |
| 1778096404 | 22.78° C | 84% | 1013.6 hPa | 0 mm | 0 m/s | - | - |
| 1778092803 | 17.78° C | 94% | 1014.7 hPa | 2.79 mm | 0 m/s | - | - |
| 1778085603 | 22.78° C | 68% | 1015.7 hPa | 0 mm | 2.68 m/s, 232° | - | - |
| 1778085003 | 22.78° C | 68% | 1015.8 hPa | 0 mm | 0.45 m/s, 277° | - | - |
| 1778084403 | 22.22° C | 69% | 1015.6 hPa | 0 mm | 0.45 m/s, 189° | - | - |
| 1778083803 | 23.33° C | 66% | 1015.4 hPa | 0 mm | 1.34 m/s, 126° | - | - |
| 1778081404 | 22.22° C | 69% | 1015.3 hPa | 0 mm | 0 m/s | - | - |
| 1778076603 | 20° C | 74% | 1014.9 hPa | 0 mm | 0.89 m/s, 213° | - | - |
| 1778075403 | 20° C | 73% | 1014.7 hPa | 0 mm | 1.79 m/s, 227° | - | - |
| 1778074804 | 20° C | 73% | 1014.8 hPa | 0 mm | 0.45 m/s, 178° | - | - |
| 1778068203 | 16.67° C | 81% | 1015.5 hPa | 0 mm | 0.45 m/s, 183° | - | - |
| 1778054404 | 17.22° C | 78% | 1015.4 hPa | 0 mm | 0.45 m/s, 213° | - | - |
| 1778052003 | 17.22° C | 77% | 1014.9 hPa | 0 mm | 0 m/s | - | - |
| 1778048404 | 17.22° C | 76% | 1015.6 hPa | 0 mm | 0.45 m/s, 44° | - | - |
| 1778045403 | 17.78° C | 76% | 1016.2 hPa | 0 mm | 0.45 m/s, 200° | - | - |
| 1778044803 | 17.78° C | 75% | 1015.9 hPa | 0 mm | 0.45 m/s, 280° | - | - |
| 1778044204 | 17.78° C | 75% | 1015.8 hPa | 0 mm | 0.45 m/s, 227° | - | - |
| 1778043004 | 18.33° C | 73% | 1016 hPa | 0 mm | 0.45 m/s, 278° | - | - |
| 1778040604 | 18.89° C | 69% | 1016.2 hPa | 0 mm | 0 m/s | - | - |
| 1778038204 | 19.44° C | 65% | 1015.6 hPa | 0 mm | 0.45 m/s, 291° | - | - |
| 1778035804 | 20° C | 62% | 1015.9 hPa | 0 mm | 0.45 m/s, 187° | - | - |
| 1778035204 | 20° C | 61% | 1016 hPa | 0 mm | 0.89 m/s, 178° | - | - |
* Rain latest hour (hover to see other rain measurements)
** Current wind speed in m/s (hover to see current wind gust speed)